sensor_id;sensor_type;location;lat;lon;timestamp;pressure;altitude;pressure_sealevel;temperature
67966;BMP280;54749;47.850;9.002;2024-03-02T00:00:40;94809.53;;;3.87
67966;BMP280;54749;47.850;9.002;2024-03-02T00:03:27;94822.03;;;3.87
67966;BMP280;54749;47.850;9.002;2024-03-02T00:05:55;94820.25;;;3.89
67966;BMP280;54749;47.850;9.002;2024-03-02T00:08:23;94820.91;;;3.91
67966;BMP280;54749;47.850;9.002;2024-03-02T00:10:58;94814.63;;;3.98
67966;BMP280;54749;47.850;9.002;2024-03-02T00:13:26;94820.78;;;4.05
67966;BMP280;54749;47.850;9.002;2024-03-02T00:15:55;94819.00;;;4.07
67966;BMP280;54749;47.850;9.002;2024-03-02T00:18:29;94820.47;;;4.09
67966;BMP280;54749;47.850;9.002;2024-03-02T00:20:57;94824.66;;;4.09
67966;BMP280;54749;47.850;9.002;2024-03-02T00:23:32;94826.94;;;4.12
67966;BMP280;54749;47.850;9.002;2024-03-02T00:26:00;94830.84;;;4.16
67966;BMP280;54749;47.850;9.002;2024-03-02T00:28:35;94837.44;;;4.17
67966;BMP280;54749;47.850;9.002;2024-03-02T00:31:04;94829.25;;;4.15
67966;BMP280;54749;47.850;9.002;2024-03-02T00:33:36;94830.84;;;4.16
67966;BMP280;54749;47.850;9.002;2024-03-02T00:36:05;94830.38;;;4.11
67966;BMP280;54749;47.850;9.002;2024-03-02T00:38:33;94818.06;;;4.08
67966;BMP280;54749;47.850;9.002;2024-03-02T00:41:04;94828.28;;;4.05
67966;BMP280;54749;47.850;9.002;2024-03-02T00:43:57;94829.19;;;4.04
67966;BMP280;54749;47.850;9.002;2024-03-02T00:46:25;94828.38;;;4.03
67966;BMP280;54749;47.850;9.002;2024-03-02T00:48:54;94826.91;;;4.01
67966;BMP280;54749;47.850;9.002;2024-03-02T00:51:24;94837.88;;;3.99
67966;BMP280;54749;47.850;9.002;2024-03-02T00:53:52;94838.91;;;3.96
67966;BMP280;54749;47.850;9.002;2024-03-02T00:56:23;94835.69;;;3.94
67966;BMP280;54749;47.850;9.002;2024-03-02T00:58:51;94835.03;;;3.92
67966;BMP280;54749;47.850;9.002;2024-03-02T01:01:19;94845.09;;;3.91
67966;BMP280;54749;47.850;9.002;2024-03-02T01:03:50;94842.03;;;3.87
67966;BMP280;54749;47.850;9.002;2024-03-02T01:06:17;94837.34;;;3.83
67966;BMP280;54749;47.850;9.002;2024-03-02T01:08:45;94838.34;;;3.81
67966;BMP280;54749;47.850;9.002;2024-03-02T01:11:14;94840.34;;;3.76
67966;BMP280;54749;47.850;9.002;2024-03-02T01:13:41;94846.47;;;3.72
67966;BMP280;54749;47.850;9.002;2024-03-02T01:16:08;94841.28;;;3.63
67966;BMP280;54749;47.850;9.002;2024-03-02T01:18:35;94844.56;;;3.63
67966;BMP280;54749;47.850;9.002;2024-03-02T01:21:03;94846.16;;;3.64
67966;BMP280;54749;47.850;9.002;2024-03-02T01:23:30;94848.63;;;3.64
67966;BMP280;54749;47.850;9.002;2024-03-02T01:25:57;94844.34;;;3.66
67966;BMP280;54749;47.850;9.002;2024-03-02T01:28:25;94855.16;;;3.67
67966;BMP280;54749;47.850;9.002;2024-03-02T01:30:51;94856.94;;;3.65
67966;BMP280;54749;47.850;9.002;2024-03-02T01:33:19;94858.63;;;3.64
67966;BMP280;54749;47.850;9.002;2024-03-02T01:35:47;94864.72;;;3.60
67966;BMP280;54749;47.850;9.002;2024-03-02T01:38:14;94848.56;;;3.53
67966;BMP280;54749;47.850;9.002;2024-03-02T01:40:41;94849.75;;;3.48
67966;BMP280;54749;47.850;9.002;2024-03-02T01:43:09;94852.56;;;3.44
67966;BMP280;54749;47.850;9.002;2024-03-02T01:45:36;94852.84;;;3.39
67966;BMP280;54749;47.850;9.002;2024-03-02T01:48:06;94850.56;;;3.36
67966;BMP280;54749;47.850;9.002;2024-03-02T01:50:34;94843.19;;;3.35
67966;BMP280;54749;47.850;9.002;2024-03-02T01:53:02;94849.06;;;3.34
67966;BMP280;54749;47.850;9.002;2024-03-02T01:55:30;94845.97;;;3.31
67966;BMP280;54749;47.850;9.002;2024-03-02T01:57:58;94846.34;;;3.25
67966;BMP280;54749;47.850;9.002;2024-03-02T02:00:26;94857.56;;;3.19
67966;BMP280;54749;47.850;9.002;2024-03-02T02:02:54;94854.34;;;3.17
67966;BMP280;54749;47.850;9.002;2024-03-02T02:05:21;94848.75;;;3.14
67966;BMP280;54749;47.850;9.002;2024-03-02T02:07:49;94837.28;;;3.12
67966;BMP280;54749;47.850;9.002;2024-03-02T02:10:16;94837.97;;;3.14
67966;BMP280;54749;47.850;9.002;2024-03-02T02:12:44;94830.28;;;3.04
67966;BMP280;54749;47.850;9.002;2024-03-02T02:15:27;94830.88;;;2.96
67966;BMP280;54749;47.850;9.002;2024-03-02T02:17:56;94828.00;;;2.89
67966;BMP280;54749;47.850;9.002;2024-03-02T02:20:24;94833.66;;;2.91
67966;BMP280;54749;47.850;9.002;2024-03-02T02:23:02;94835.56;;;2.88
67966;BMP280;54749;47.850;9.002;2024-03-02T02:25:29;94841.44;;;2.87
67966;BMP280;54749;47.850;9.002;2024-03-02T02:27:57;94835.66;;;2.86
67966;BMP280;54749;47.850;9.002;2024-03-02T02:30:26;94844.44;;;2.92
67966;BMP280;54749;47.850;9.002;2024-03-02T02:32:54;94843.06;;;3.00
67966;BMP280;54749;47.850;9.002;2024-03-02T02:35:21;94834.09;;;3.10
67966;BMP280;54749;47.850;9.002;2024-03-02T02:37:49;94835.09;;;3.19
67966;BMP280;54749;47.850;9.002;2024-03-02T02:40:17;94842.59;;;3.19
67966;BMP280;54749;47.850;9.002;2024-03-02T02:42:46;94832.78;;;3.16
67966;BMP280;54749;47.850;9.002;2024-03-02T02:45:14;94839.59;;;3.14
67966;BMP280;54749;47.850;9.002;2024-03-02T02:47:42;94831.28;;;3.14
67966;BMP280;54749;47.850;9.002;2024-03-02T02:50:10;94830.50;;;3.14
67966;BMP280;54749;47.850;9.002;2024-03-02T02:52:39;94823.22;;;3.11
67966;BMP280;54749;47.850;9.002;2024-03-02T02:55:12;94834.00;;;3.11
67966;BMP280;54749;47.850;9.002;2024-03-02T02:57:41;94836.38;;;3.13
67966;BMP280;54749;47.850;9.002;2024-03-02T03:00:12;94832.41;;;3.10
67966;BMP280;54749;47.850;9.002;2024-03-02T03:02:46;94839.97;;;3.09
67966;BMP280;54749;47.850;9.002;2024-03-02T03:05:15;94835.69;;;3.11
67966;BMP280;54749;47.850;9.002;2024-03-02T03:07:42;94830.50;;;3.14
67966;BMP280;54749;47.850;9.002;2024-03-02T03:10:11;94823.50;;;3.18
67966;BMP280;54749;47.850;9.002;2024-03-02T03:12:39;94819.63;;;3.14
67966;BMP280;54749;47.850;9.002;2024-03-02T03:15:08;94823.00;;;3.14
67966;BMP280;54749;47.850;9.002;2024-03-02T03:17:36;94829.81;;;3.12
67966;BMP280;54749;47.850;9.002;2024-03-02T03:20:05;94826.59;;;3.10
67966;BMP280;54749;47.850;9.002;2024-03-02T03:22:33;94829.00;;;3.11
67966;BMP280;54749;47.850;9.002;2024-03-02T03:25:02;94834.81;;;3.12
67966;BMP280;54749;47.850;9.002;2024-03-02T03:27:30;94823.00;;;3.14
67966;BMP280;54749;47.850;9.002;2024-03-02T03:29:57;94829.41;;;3.17
67966;BMP280;54749;47.850;9.002;2024-03-02T03:32:25;94829.41;;;3.17
67966;BMP280;54749;47.850;9.002;2024-03-02T03:34:52;94828.09;;;3.12
67966;BMP280;54749;47.850;9.002;2024-03-02T03:37:19;94826.59;;;3.10
67966;BMP280;54749;47.850;9.002;2024-03-02T03:39:46;94823.91;;;3.13
67966;BMP280;54749;47.850;9.002;2024-03-02T03:42:13;94822.03;;;3.16
67966;BMP280;54749;47.850;9.002;2024-03-02T03:44:40;94829.19;;;3.20
67966;BMP280;54749;47.850;9.002;2024-03-02T03:47:09;94834.69;;;3.25
67966;BMP280;54749;47.850;9.002;2024-03-02T03:49:36;94834.38;;;3.30
67966;BMP280;54749;47.850;9.002;2024-03-02T03:52:03;94832.38;;;3.34
67966;BMP280;54749;47.850;9.002;2024-03-02T03:54:31;94827.09;;;3.39
67966;BMP280;54749;47.850;9.002;2024-03-02T03:56:58;94823.50;;;3.43
67966;BMP280;54749;47.850;9.002;2024-03-02T03:59:25;94830.81;;;3.46
67966;BMP280;54749;47.850;9.002;2024-03-02T04:01:52;94823.81;;;3.50
67966;BMP280;54749;47.850;9.002;2024-03-02T04:04:20;94825.88;;;3.56
67966;BMP280;54749;47.850;9.002;2024-03-02T04:06:47;94833.06;;;3.61
67966;BMP280;54749;47.850;9.002;2024-03-02T04:09:14;94830.56;;;3.61
67966;BMP280;54749;47.850;9.002;2024-03-02T04:11:42;94835.69;;;3.59
67966;BMP280;54749;47.850;9.002;2024-03-02T04:14:09;94829.97;;;3.57
67966;BMP280;54749;47.850;9.002;2024-03-02T04:16:37;94837.56;;;3.56
67966;BMP280;54749;47.850;9.002;2024-03-02T04:19:04;94839.97;;;3.57
67966;BMP280;54749;47.850;9.002;2024-03-02T04:21:31;94838.19;;;3.59
67966;BMP280;54749;47.850;9.002;2024-03-02T04:23:58;94844.06;;;3.58
67966;BMP280;54749;47.850;9.002;2024-03-02T04:26:26;94845.06;;;3.56
67966;BMP280;54749;47.850;9.002;2024-03-02T04:28:53;94845.97;;;3.55
67966;BMP280;54749;47.850;9.002;2024-03-02T04:31:21;94851.56;;;3.58
67966;BMP280;54749;47.850;9.002;2024-03-02T04:33:48;94847.97;;;3.62
67966;BMP280;54749;47.850;9.002;2024-03-02T04:36:16;94847.84;;;3.64
67966;BMP280;54749;47.850;9.002;2024-03-02T04:38:43;94842.97;;;3.62
67966;BMP280;54749;47.850;9.002;2024-03-02T04:41:10;94856.13;;;3.64
67966;BMP280;54749;47.850;9.002;2024-03-02T04:43:37;94849.34;;;3.66
67966;BMP280;54749;47.850;9.002;2024-03-02T04:46:05;94851.53;;;3.70
67966;BMP280;54749;47.850;9.002;2024-03-02T04:48:32;94851.44;;;3.72
67966;BMP280;54749;47.850;9.002;2024-03-02T04:50:59;94850.44;;;3.74
67966;BMP280;54749;47.850;9.002;2024-03-02T04:53:27;94846.91;;;3.77
67966;BMP280;54749;47.850;9.002;2024-03-02T04:55:54;94847.34;;;3.71
67966;BMP280;54749;47.850;9.002;2024-03-02T04:58:39;94853.53;;;3.66
67966;BMP280;54749;47.850;9.002;2024-03-02T05:01:06;94841.94;;;3.65
67966;BMP280;54749;47.850;9.002;2024-03-02T05:03:34;94841.66;;;3.69
67966;BMP280;54749;47.850;9.002;2024-03-02T05:06:02;94838.34;;;3.68
67966;BMP280;54749;47.850;9.002;2024-03-02T05:08:29;94843.97;;;3.72
67966;BMP280;54749;47.850;9.002;2024-03-02T05:10:56;94847.84;;;3.76
67966;BMP280;54749;47.850;9.002;2024-03-02T05:13:43;94847.53;;;3.80
67966;BMP280;54749;47.850;9.002;2024-03-02T05:16:11;94844.03;;;3.83
67966;BMP280;54749;47.850;9.002;2024-03-02T05:18:38;94846.44;;;3.84
67966;BMP280;54749;47.850;9.002;2024-03-02T05:21:05;94852.31;;;3.83
67966;BMP280;54749;47.850;9.002;2024-03-02T05:23:32;94848.34;;;3.81
67966;BMP280;54749;47.850;9.002;2024-03-02T05:26:00;94856.03;;;3.78
67966;BMP280;54749;47.850;9.002;2024-03-02T05:28:27;94859.09;;;3.81
67966;BMP280;54749;47.850;9.002;2024-03-02T05:30:54;94858.94;;;3.72
67966;BMP280;54749;47.850;9.002;2024-03-02T05:33:21;94860.53;;;3.73
67966;BMP280;54749;47.850;9.002;2024-03-02T05:35:50;94859.63;;;3.74
67966;BMP280;54749;47.850;9.002;2024-03-02T05:38:16;94849.72;;;3.72
67966;BMP280;54749;47.850;9.002;2024-03-02T05:40:44;94858.94;;;3.72
67966;BMP280;54749;47.850;9.002;2024-03-02T05:43:11;94865.34;;;3.76
67966;BMP280;54749;47.850;9.002;2024-03-02T05:45:39;94860.84;;;3.81
67966;BMP280;54749;47.850;9.002;2024-03-02T05:48:07;94870.53;;;3.85
67966;BMP280;54749;47.850;9.002;2024-03-02T05:50:35;94861.31;;;3.85
67966;BMP280;54749;47.850;9.002;2024-03-02T05:53:02;94861.13;;;3.88
67966;BMP280;54749;47.850;9.002;2024-03-02T05:55:30;94865.31;;;3.88
67966;BMP280;54749;47.850;9.002;2024-03-02T05:57:58;94865.41;;;3.86
67966;BMP280;54749;47.850;9.002;2024-03-02T06:00:25;94862.31;;;3.83
67966;BMP280;54749;47.850;9.002;2024-03-02T06:02:52;94864.91;;;3.82
67966;BMP280;54749;47.850;9.002;2024-03-02T06:05:20;94869.09;;;3.81
67966;BMP280;54749;47.850;9.002;2024-03-02T06:07:47;94870.53;;;3.85
67966;BMP280;54749;47.850;9.002;2024-03-02T06:10:14;94862.91;;;3.86
67966;BMP280;54749;47.850;9.002;2024-03-02T06:12:41;94876.91;;;3.89
67966;BMP280;54749;47.850;9.002;2024-03-02T06:15:09;94877.50;;;3.92
67966;BMP280;54749;47.850;9.002;2024-03-02T06:17:37;94887.28;;;3.95
67966;BMP280;54749;47.850;9.002;2024-03-02T06:20:04;94887.69;;;4.02
67966;BMP280;54749;47.850;9.002;2024-03-02T06:22:32;94887.56;;;4.03
67966;BMP280;54749;47.850;9.002;2024-03-02T06:24:59;94886.47;;;4.07
67966;BMP280;54749;47.850;9.002;2024-03-02T06:27:26;94887.88;;;4.11
67966;BMP280;54749;47.850;9.002;2024-03-02T06:29:53;94885.81;;;4.16
67966;BMP280;54749;47.850;9.002;2024-03-02T06:32:21;94889.03;;;4.18
67966;BMP280;54749;47.850;9.002;2024-03-02T06:34:50;94880.63;;;4.19
67966;BMP280;54749;47.850;9.002;2024-03-02T06:37:17;94883.81;;;4.20
67966;BMP280;54749;47.850;9.002;2024-03-02T06:39:44;94882.91;;;4.21
67966;BMP280;54749;47.850;9.002;2024-03-02T06:42:11;94882.81;;;4.23
67966;BMP280;54749;47.850;9.002;2024-03-02T06:44:38;94885.41;;;4.21
67966;BMP280;54749;47.850;9.002;2024-03-02T06:47:05;94886.44;;;4.19
67966;BMP280;54749;47.850;9.002;2024-03-02T06:49:32;94894.75;;;4.19
67966;BMP280;54749;47.850;9.002;2024-03-02T06:52:01;94898.22;;;4.17
67966;BMP280;54749;47.850;9.002;2024-03-02T06:54:29;94887.44;;;4.17
67966;BMP280;54749;47.850;9.002;2024-03-02T06:56:56;94881.03;;;4.13
67966;BMP280;54749;47.850;9.002;2024-03-02T06:59:23;94884.44;;;4.12
67966;BMP280;54749;47.850;9.002;2024-03-02T07:01:51;94886.03;;;4.13
67966;BMP280;54749;47.850;9.002;2024-03-02T07:04:18;94888.63;;;4.11
67966;BMP280;54749;47.850;9.002;2024-03-02T07:06:45;94877.44;;;4.17
67966;BMP280;54749;47.850;9.002;2024-03-02T07:09:13;94890.19;;;4.24
67966;BMP280;54749;47.850;9.002;2024-03-02T07:11:40;94885.69;;;4.29
67966;BMP280;54749;47.850;9.002;2024-03-02T07:14:07;94893.81;;;4.33
67966;BMP280;54749;47.850;9.002;2024-03-02T07:16:37;94888.28;;;4.40
67966;BMP280;54749;47.850;9.002;2024-03-02T07:19:05;94895.56;;;4.43
67966;BMP280;54749;47.850;9.002;2024-03-02T07:21:33;94887.88;;;4.46
67966;BMP280;54749;47.850;9.002;2024-03-02T07:24:00;94884.25;;;4.50
67966;BMP280;54749;47.850;9.002;2024-03-02T07:26:30;94883.13;;;4.54
67966;BMP280;54749;47.850;9.002;2024-03-02T07:29:01;94886.13;;;4.58
67966;BMP280;54749;47.850;9.002;2024-03-02T07:31:28;94871.88;;;4.59
67966;BMP280;54749;47.850;9.002;2024-03-02T07:33:55;94877.50;;;4.62
67966;BMP280;54749;47.850;9.002;2024-03-02T07:36:22;94878.06;;;4.66
67966;BMP280;54749;47.850;9.002;2024-03-02T07:38:49;94880.34;;;4.69
67966;BMP280;54749;47.850;9.002;2024-03-02T07:41:17;94880.34;;;4.69
67966;BMP280;54749;47.850;9.002;2024-03-02T07:43:44;94880.91;;;4.72
67966;BMP280;54749;47.850;9.002;2024-03-02T07:46:11;94876.63;;;4.74
67966;BMP280;54749;47.850;9.002;2024-03-02T07:48:38;94871.41;;;4.77
67966;BMP280;54749;47.850;9.002;2024-03-02T07:51:05;94872.34;;;4.87
67966;BMP280;54749;47.850;9.002;2024-03-02T07:53:34;94873.78;;;5.01
67966;BMP280;54749;47.850;9.002;2024-03-02T07:56:01;94881.06;;;5.04
67966;BMP280;54749;47.850;9.002;2024-03-02T07:58:30;94885.19;;;5.16
67966;BMP280;54749;47.850;9.002;2024-03-02T08:00:58;94885.34;;;5.25
67966;BMP280;54749;47.850;9.002;2024-03-02T08:03:28;94871.63;;;5.41
67966;BMP280;54749;47.850;9.002;2024-03-02T08:05:55;94877.78;;;5.58
67966;BMP280;54749;47.850;9.002;2024-03-02T08:08:23;94868.16;;;5.76
67966;BMP280;54749;47.850;9.002;2024-03-02T08:10:50;94869.63;;;5.89
67966;BMP280;54749;47.850;9.002;2024-03-02T08:13:17;94863.00;;;5.98
67966;BMP280;54749;47.850;9.002;2024-03-02T08:15:44;94848.53;;;6.12
67966;BMP280;54749;47.850;9.002;2024-03-02T08:18:11;94853.56;;;6.12
67966;BMP280;54749;47.850;9.002;2024-03-02T08:20:38;94852.66;;;6.13
67966;BMP280;54749;47.850;9.002;2024-03-02T08:23:06;94855.97;;;6.14
67966;BMP280;54749;47.850;9.002;2024-03-02T08:25:33;94854.31;;;6.24
67966;BMP280;54749;47.850;9.002;2024-03-02T08:28:00;94862.84;;;6.43
67966;BMP280;54749;47.850;9.002;2024-03-02T08:30:27;94857.59;;;6.46
67966;BMP280;54749;47.850;9.002;2024-03-02T08:32:55;94849.69;;;6.61
67966;BMP280;54749;47.850;9.002;2024-03-02T08:35:22;94863.81;;;6.72
67966;BMP280;54749;47.850;9.002;2024-03-02T08:37:50;94865.84;;;6.78
67966;BMP280;54749;47.850;9.002;2024-03-02T08:40:17;94850.97;;;6.86
67966;BMP280;54749;47.850;9.002;2024-03-02T08:42:45;94858.47;;;6.97
67966;BMP280;54749;47.850;9.002;2024-03-02T08:45:13;94860.47;;;7.02
67966;BMP280;54749;47.850;9.002;2024-03-02T08:47:40;94841.97;;;7.14
67966;BMP280;54749;47.850;9.002;2024-03-02T08:50:07;94856.16;;;7.24
67966;BMP280;54749;47.850;9.002;2024-03-02T08:52:36;94852.56;;;7.17
67966;BMP280;54749;47.850;9.002;2024-03-02T08:55:03;94840.72;;;7.09
67966;BMP280;54749;47.850;9.002;2024-03-02T08:57:31;94839.66;;;7.11
67966;BMP280;54749;47.850;9.002;2024-03-02T08:59:59;94837.47;;;7.37
67966;BMP280;54749;47.850;9.002;2024-03-02T09:02:27;94840.53;;;7.61
67966;BMP280;54749;47.850;9.002;2024-03-02T09:04:54;94837.91;;;7.71
67966;BMP280;54749;47.850;9.002;2024-03-02T09:07:21;94843.03;;;7.90
67966;BMP280;54749;47.850;9.002;2024-03-02T09:09:48;94836.31;;;7.70
67966;BMP280;54749;47.850;9.002;2024-03-02T09:12:16;94836.13;;;7.34
67966;BMP280;54749;47.850;9.002;2024-03-02T09:14:43;94833.97;;;7.29
67966;BMP280;54749;47.850;9.002;2024-03-02T09:17:10;94822.75;;;7.33
67966;BMP280;54749;47.850;9.002;2024-03-02T09:19:39;94829.81;;;7.39
67966;BMP280;54749;47.850;9.002;2024-03-02T09:22:06;94820.16;;;7.64
67966;BMP280;54749;47.850;9.002;2024-03-02T09:24:33;94817.19;;;8.65
67966;BMP280;54749;47.850;9.002;2024-03-02T09:27:00;94808.34;;;10.92
67966;BMP280;54749;47.850;9.002;2024-03-02T09:29:28;94790.81;;;13.03
67966;BMP280;54749;47.850;9.002;2024-03-02T09:31:56;94789.97;;;13.96
67966;BMP280;54749;47.850;9.002;2024-03-02T09:34:23;94796.81;;;13.96
67966;BMP280;54749;47.850;9.002;2024-03-02T09:36:51;94779.59;;;14.13
67966;BMP280;54749;47.850;9.002;2024-03-02T09:39:19;94787.88;;;14.15
67966;BMP280;54749;47.850;9.002;2024-03-02T09:41:47;94785.72;;;14.64
67966;BMP280;54749;47.850;9.002;2024-03-02T09:44:14;94781.06;;;15.05
67966;BMP280;54749;47.850;9.002;2024-03-02T09:46:42;94764.66;;;15.29
67966;BMP280;54749;47.850;9.002;2024-03-02T09:49:11;94765.94;;;16.11
67966;BMP280;54749;47.850;9.002;2024-03-02T09:51:39;94767.88;;;16.23
67966;BMP280;54749;47.850;9.002;2024-03-02T09:54:07;94770.84;;;16.41
67966;BMP280;54749;47.850;9.002;2024-03-02T09:56:48;94771.91;;;16.81
67966;BMP280;54749;47.850;9.002;2024-03-02T09:59:15;94760.19;;;17.68
67966;BMP280;54749;47.850;9.002;2024-03-02T10:01:58;94763.81;;;17.79
67966;BMP280;54749;47.850;9.002;2024-03-02T10:04:27;94749.81;;;18.29
67966;BMP280;54749;47.850;9.002;2024-03-02T10:07:17;94754.94;;;20.02
67966;BMP280;54749;47.850;9.002;2024-03-02T10:09:46;94743.09;;;21.96
67966;BMP280;54749;47.850;9.002;2024-03-02T10:12:16;94731.13;;;23.42
67966;BMP280;54749;47.850;9.002;2024-03-02T10:14:43;94727.28;;;24.62
67966;BMP280;54749;47.850;9.002;2024-03-02T10:17:12;94723.38;;;25.42
67966;BMP280;54749;47.850;9.002;2024-03-02T10:19:40;94714.03;;;26.16
67966;BMP280;54749;47.850;9.002;2024-03-02T10:22:09;94710.75;;;26.99
67966;BMP280;54749;47.850;9.002;2024-03-02T10:24:38;94717.00;;;27.76
67966;BMP280;54749;47.850;9.002;2024-03-02T10:27:09;94719.13;;;27.27
67966;BMP280;54749;47.850;9.002;2024-03-02T10:29:38;94710.16;;;27.39
67966;BMP280;54749;47.850;9.002;2024-03-02T10:32:09;94705.34;;;28.49
67966;BMP280;54749;47.850;9.002;2024-03-02T10:34:45;94698.44;;;29.29
67966;BMP280;54749;47.850;9.002;2024-03-02T10:37:13;94698.38;;;29.19
67966;BMP280;54749;47.850;9.002;2024-03-02T10:39:40;94692.78;;;28.82
67966;BMP280;54749;47.850;9.002;2024-03-02T10:42:09;94702.31;;;28.66
67966;BMP280;54749;47.850;9.002;2024-03-02T10:44:36;94695.25;;;29.12
67966;BMP280;54749;47.850;9.002;2024-03-02T10:47:04;94703.97;;;28.77
67966;BMP280;54749;47.850;9.002;2024-03-02T10:49:32;94693.09;;;28.45
67966;BMP280;54749;47.850;9.002;2024-03-02T10:52:00;94692.28;;;28.84
67966;BMP280;54749;47.850;9.002;2024-03-02T10:54:28;94677.22;;;28.91
67966;BMP280;54749;47.850;9.002;2024-03-02T10:57:04;94686.06;;;28.45
67966;BMP280;54749;47.850;9.002;2024-03-02T10:59:36;94673.19;;;28.65
67966;BMP280;54749;47.850;9.002;2024-03-02T11:02:04;94659.50;;;28.88
67966;BMP280;54749;47.850;9.002;2024-03-02T11:04:34;94669.66;;;27.99
67966;BMP280;54749;47.850;9.002;2024-03-02T11:09:33;94660.34;;;27.68
67966;BMP280;54749;47.850;9.002;2024-03-02T11:12:23;94654.69;;;28.56
67966;BMP280;54749;47.850;9.002;2024-03-02T11:14:55;94638.59;;;29.43
67966;BMP280;54749;47.850;9.002;2024-03-02T11:17:23;94642.22;;;29.42
67966;BMP280;54749;47.850;9.002;2024-03-02T11:19:52;94631.72;;;29.18
67966;BMP280;54749;47.850;9.002;2024-03-02T11:22:20;94639.84;;;29.31
67966;BMP280;54749;47.850;9.002;2024-03-02T11:24:49;94639.09;;;28.66
67966;BMP280;54749;47.850;9.002;2024-03-02T11:33:04;94668.31;;;22.33
67966;BMP280;54749;47.850;9.002;2024-03-02T11:35:41;94657.63;;;20.99
67966;BMP280;54749;47.850;9.002;2024-03-02T11:38:18;94666.31;;;20.06
67966;BMP280;54749;47.850;9.002;2024-03-02T11:40:45;94655.41;;;19.55
67966;BMP280;54749;47.850;9.002;2024-03-02T11:43:13;94645.31;;;18.91
67966;BMP280;54749;47.850;9.002;2024-03-02T11:45:42;94642.16;;;18.18
67966;BMP280;54749;47.850;9.002;2024-03-02T11:48:14;94635.41;;;17.71
67966;BMP280;54749;47.850;9.002;2024-03-02T11:50:50;94628.53;;;17.38
67966;BMP280;54749;47.850;9.002;2024-03-02T11:53:18;94616.03;;;17.50
67966;BMP280;54749;47.850;9.002;2024-03-02T11:55:46;94625.19;;;17.38
67966;BMP280;54749;47.850;9.002;2024-03-02T11:58:15;94616.41;;;17.20
67966;BMP280;54749;47.850;9.002;2024-03-02T12:00:50;94610.34;;;16.94
67966;BMP280;54749;47.850;9.002;2024-03-02T12:03:21;94616.16;;;16.68
67966;BMP280;54749;47.850;9.002;2024-03-02T12:05:51;94605.84;;;16.35
67966;BMP280;54749;47.850;9.002;2024-03-02T12:08:20;94597.44;;;16.20
67966;BMP280;54749;47.850;9.002;2024-03-02T12:11:01;94601.06;;;16.32
67966;BMP280;54749;47.850;9.002;2024-03-02T12:13:30;94579.75;;;16.53
67966;BMP280;54749;47.850;9.002;2024-03-02T12:15:58;94576.69;;;16.44
67966;BMP280;54749;47.850;9.002;2024-03-02T12:18:26;94578.50;;;16.09
67966;BMP280;54749;47.850;9.002;2024-03-02T12:20:54;94582.56;;;16.24
67966;BMP280;54749;47.850;9.002;2024-03-02T12:23:25;94568.63;;;16.40
67966;BMP280;54749;47.850;9.002;2024-03-02T12:25:52;94573.91;;;16.18
67966;BMP280;54749;47.850;9.002;2024-03-02T12:28:21;94562.66;;;16.33
67966;BMP280;54749;47.850;9.002;2024-03-02T12:30:48;94560.78;;;16.42
67966;BMP280;54749;47.850;9.002;2024-03-02T12:33:16;94564.38;;;16.47
67966;BMP280;54749;47.850;9.002;2024-03-02T12:35:44;94558.94;;;15.95
67966;BMP280;54749;47.850;9.002;2024-03-02T12:38:11;94559.59;;;15.69
67966;BMP280;54749;47.850;9.002;2024-03-02T12:40:38;94563.81;;;15.62
67966;BMP280;54749;47.850;9.002;2024-03-02T12:43:06;94557.03;;;15.55
67966;BMP280;54749;47.850;9.002;2024-03-02T12:45:34;94560.38;;;15.41
67966;BMP280;54749;47.850;9.002;2024-03-02T12:48:04;94545.75;;;15.29
67966;BMP280;54749;47.850;9.002;2024-03-02T12:50:33;94538.13;;;14.65
67966;BMP280;54749;47.850;9.002;2024-03-02T12:53:00;94531.69;;;14.54
67966;BMP280;54749;47.850;9.002;2024-03-02T12:55:28;94529.06;;;14.48
67966;BMP280;54749;47.850;9.002;2024-03-02T12:57:56;94536.63;;;14.56
67966;BMP280;54749;47.850;9.002;2024-03-02T13:00:26;94525.06;;;14.54
67966;BMP280;54749;47.850;9.002;2024-03-02T13:02:54;94526.72;;;14.61
67966;BMP280;54749;47.850;9.002;2024-03-02T13:05:32;94511.22;;;14.70
67966;BMP280;54749;47.850;9.002;2024-03-02T13:08:00;94515.25;;;14.65
67966;BMP280;54749;47.850;9.002;2024-03-02T13:10:27;94512.19;;;14.69
67966;BMP280;54749;47.850;9.002;2024-03-02T13:12:56;94515.34;;;14.57
67966;BMP280;54749;47.850;9.002;2024-03-02T13:15:23;94514.84;;;14.75
67966;BMP280;54749;47.850;9.002;2024-03-02T13:17:51;94504.84;;;14.88
67966;BMP280;54749;47.850;9.002;2024-03-02T13:20:18;94509.13;;;14.88
67966;BMP280;54749;47.850;9.002;2024-03-02T13:22:48;94498.09;;;14.67
67966;BMP280;54749;47.850;9.002;2024-03-02T13:25:15;94487.56;;;14.70
67966;BMP280;54749;47.850;9.002;2024-03-02T13:27:42;94488.38;;;14.84
67966;BMP280;54749;47.850;9.002;2024-03-02T13:30:10;94490.63;;;14.79
67966;BMP280;54749;47.850;9.002;2024-03-02T13:32:37;94491.94;;;14.75
67966;BMP280;54749;47.850;9.002;2024-03-02T13:35:05;94481.16;;;14.73
67966;BMP280;54749;47.850;9.002;2024-03-02T13:37:32;94480.66;;;14.92
67966;BMP280;54749;47.850;9.002;2024-03-02T13:39:59;94475.91;;;14.89
67966;BMP280;54749;47.850;9.002;2024-03-02T13:42:27;94469.47;;;14.37
67966;BMP280;54749;47.850;9.002;2024-03-02T13:44:54;94477.38;;;14.41
67966;BMP280;54749;47.850;9.002;2024-03-02T13:47:22;94470.50;;;14.42
67966;BMP280;54749;47.850;9.002;2024-03-02T13:49:49;94479.81;;;14.49
67966;BMP280;54749;47.850;9.002;2024-03-02T13:52:17;94479.03;;;14.49
67966;BMP280;54749;47.850;9.002;2024-03-02T13:54:46;94469.38;;;14.44
67966;BMP280;54749;47.850;9.002;2024-03-02T13:57:13;94464.91;;;14.46
67966;BMP280;54749;47.850;9.002;2024-03-02T13:59:42;94475.25;;;14.45
67966;BMP280;54749;47.850;9.002;2024-03-02T14:02:11;94457.81;;;14.56
67966;BMP280;54749;47.850;9.002;2024-03-02T14:04:39;94453.78;;;14.47
67966;BMP280;54749;47.850;9.002;2024-03-02T14:07:07;94448.34;;;14.50
67966;BMP280;54749;47.850;9.002;2024-03-02T14:09:35;94442.38;;;14.43
67966;BMP280;54749;47.850;9.002;2024-03-02T14:12:04;94441.03;;;14.33
67966;BMP280;54749;47.850;9.002;2024-03-02T14:14:34;94443.34;;;14.28
67966;BMP280;54749;47.850;9.002;2024-03-02T14:17:02;94429.91;;;14.20
67966;BMP280;54749;47.850;9.002;2024-03-02T14:19:33;94435.31;;;14.17
67966;BMP280;54749;47.850;9.002;2024-03-02T14:22:01;94429.16;;;13.98
67966;BMP280;54749;47.850;9.002;2024-03-02T14:24:28;94430.63;;;13.70
67966;BMP280;54749;47.850;9.002;2024-03-02T14:26:57;94423.28;;;13.75
67966;BMP280;54749;47.850;9.002;2024-03-02T14:29:45;94422.56;;;13.67
67966;BMP280;54749;47.850;9.002;2024-03-02T14:32:13;94425.69;;;13.69